sensor_id;sensor_type;location;lat;lon;timestamp;P1;durP1;ratioP1;P2;durP2;ratioP2
32295;SDS011;18781;51.550;5.418;2022-12-18T00:00:28;106.88;;;40.28;;
32295;SDS011;18781;51.550;5.418;2022-12-18T00:02:55;105.03;;;40.97;;
32295;SDS011;18781;51.550;5.418;2022-12-18T00:05:20;101.05;;;39.15;;
32295;SDS011;18781;51.550;5.418;2022-12-18T00:07:46;92.85;;;37.08;;
32295;SDS011;18781;51.550;5.418;2022-12-18T00:10:11;104.50;;;37.67;;
32295;SDS011;18781;51.550;5.418;2022-12-18T00:12:37;107.80;;;39.40;;
32295;SDS011;18781;51.550;5.418;2022-12-18T00:15:03;105.85;;;38.40;;
32295;SDS011;18781;51.550;5.418;2022-12-18T00:17:29;96.57;;;36.85;;
32295;SDS011;18781;51.550;5.418;2022-12-18T00:19:54;102.85;;;37.70;;
32295;SDS011;18781;51.550;5.418;2022-12-18T00:22:20;99.15;;;38.13;;
32295;SDS011;18781;51.550;5.418;2022-12-18T00:24:45;91.45;;;35.95;;
32295;SDS011;18781;51.550;5.418;2022-12-18T00:27:11;90.70;;;36.80;;
32295;SDS011;18781;51.550;5.418;2022-12-18T00:29:37;92.50;;;35.90;;
32295;SDS011;18781;51.550;5.418;2022-12-18T00:32:03;91.75;;;35.70;;
32295;SDS011;18781;51.550;5.418;2022-12-18T00:34:29;91.30;;;36.67;;
32295;SDS011;18781;51.550;5.418;2022-12-18T00:36:54;96.30;;;37.17;;
32295;SDS011;18781;51.550;5.418;2022-12-18T00:39:20;91.50;;;36.72;;
32295;SDS011;18781;51.550;5.418;2022-12-18T00:41:46;98.13;;;37.50;;
32295;SDS011;18781;51.550;5.418;2022-12-18T00:44:30;95.40;;;36.00;;
32295;SDS011;18781;51.550;5.418;2022-12-18T00:46:56;95.97;;;36.00;;
32295;SDS011;18781;51.550;5.418;2022-12-18T00:49:21;93.50;;;35.08;;
32295;SDS011;18781;51.550;5.418;2022-12-18T00:51:47;91.38;;;35.70;;
32295;SDS011;18781;51.550;5.418;2022-12-18T00:54:13;96.03;;;36.97;;
32295;SDS011;18781;51.550;5.418;2022-12-18T00:56:38;96.22;;;37.05;;
32295;SDS011;18781;51.550;5.418;2022-12-18T00:59:05;98.30;;;36.50;;
32295;SDS011;18781;51.550;5.418;2022-12-18T01:01:30;89.85;;;35.70;;
32295;SDS011;18781;51.550;5.418;2022-12-18T01:03:57;96.63;;;36.00;;
32295;SDS011;18781;51.550;5.418;2022-12-18T01:06:23;93.35;;;36.22;;
32295;SDS011;18781;51.550;5.418;2022-12-18T01:08:49;91.70;;;36.42;;
32295;SDS011;18781;51.550;5.418;2022-12-18T01:11:15;91.57;;;34.70;;
32295;SDS011;18781;51.550;5.418;2022-12-18T01:13:43;70.30;;;27.77;;
32295;SDS011;18781;51.550;5.418;2022-12-18T01:16:10;83.13;;;33.63;;
32295;SDS011;18781;51.550;5.418;2022-12-18T01:18:38;90.97;;;35.30;;
32295;SDS011;18781;51.550;5.418;2022-12-18T01:21:07;91.65;;;34.03;;
32295;SDS011;18781;51.550;5.418;2022-12-18T01:23:34;89.95;;;35.17;;
32295;SDS011;18781;51.550;5.418;2022-12-18T01:26:13;90.18;;;34.13;;
32295;SDS011;18781;51.550;5.418;2022-12-18T01:28:40;83.55;;;33.95;;
32295;SDS011;18781;51.550;5.418;2022-12-18T01:31:49;89.00;;;34.28;;
32295;SDS011;18781;51.550;5.418;2022-12-18T01:33:57;91.65;;;34.38;;
32295;SDS011;18781;51.550;5.418;2022-12-18T01:36:36;76.05;;;31.48;;
32295;SDS011;18781;51.550;5.418;2022-12-18T01:39:05;81.78;;;32.80;;
32295;SDS011;18781;51.550;5.418;2022-12-18T01:41:38;78.70;;;32.88;;
32295;SDS011;18781;51.550;5.418;2022-12-18T01:49:57;78.03;;;31.67;;
32295;SDS011;18781;51.550;5.418;2022-12-18T01:52:28;89.00;;;33.45;;
32295;SDS011;18781;51.550;5.418;2022-12-18T01:54:56;91.40;;;34.13;;
32295;SDS011;18781;51.550;5.418;2022-12-18T01:57:22;80.65;;;32.67;;
32295;SDS011;18781;51.550;5.418;2022-12-18T01:59:49;74.25;;;31.02;;
32295;SDS011;18781;51.550;5.418;2022-12-18T02:02:18;77.72;;;32.78;;
32295;SDS011;18781;51.550;5.418;2022-12-18T02:04:45;84.90;;;32.60;;
32295;SDS011;18781;51.550;5.418;2022-12-18T02:07:14;68.45;;;32.00;;
32295;SDS011;18781;51.550;5.418;2022-12-18T02:09:48;83.88;;;32.42;;
32295;SDS011;18781;51.550;5.418;2022-12-18T02:12:23;78.50;;;32.20;;
32295;SDS011;18781;51.550;5.418;2022-12-18T02:14:54;77.82;;;31.48;;
32295;SDS011;18781;51.550;5.418;2022-12-18T02:17:37;73.57;;;30.38;;
32295;SDS011;18781;51.550;5.418;2022-12-18T02:20:36;74.20;;;31.83;;
32295;SDS011;18781;51.550;5.418;2022-12-18T02:26:27;72.18;;;29.13;;
32295;SDS011;18781;51.550;5.418;2022-12-18T02:29:00;79.05;;;29.48;;
32295;SDS011;18781;51.550;5.418;2022-12-18T02:31:43;75.70;;;31.40;;
32295;SDS011;18781;51.550;5.418;2022-12-18T02:34:17;67.10;;;29.92;;
32295;SDS011;18781;51.550;5.418;2022-12-18T02:36:45;72.30;;;30.67;;
32295;SDS011;18781;51.550;5.418;2022-12-18T02:39:13;57.45;;;24.30;;
32295;SDS011;18781;51.550;5.418;2022-12-18T02:41:40;67.57;;;29.20;;
32295;SDS011;18781;51.550;5.418;2022-12-18T02:44:07;80.03;;;30.77;;
32295;SDS011;18781;51.550;5.418;2022-12-18T02:46:36;74.60;;;31.08;;
32295;SDS011;18781;51.550;5.418;2022-12-18T02:51:39;76.78;;;31.10;;
32295;SDS011;18781;51.550;5.418;2022-12-18T02:54:21;69.05;;;30.27;;
32295;SDS011;18781;51.550;5.418;2022-12-18T02:56:57;77.43;;;30.77;;
32295;SDS011;18781;51.550;5.418;2022-12-18T02:59:30;73.38;;;30.35;;
32295;SDS011;18781;51.550;5.418;2022-12-18T03:05:16;66.90;;;28.92;;
32295;SDS011;18781;51.550;5.418;2022-12-18T03:08:07;73.03;;;28.98;;
32295;SDS011;18781;51.550;5.418;2022-12-18T03:10:41;80.47;;;29.85;;
32295;SDS011;18781;51.550;5.418;2022-12-18T03:13:16;75.05;;;30.10;;
32295;SDS011;18781;51.550;5.418;2022-12-18T03:15:52;70.63;;;29.23;;
32295;SDS011;18781;51.550;5.418;2022-12-18T03:18:33;68.40;;;27.30;;
32295;SDS011;18781;51.550;5.418;2022-12-18T03:21:02;71.60;;;28.25;;
32295;SDS011;18781;51.550;5.418;2022-12-18T03:23:34;70.85;;;27.33;;
32295;SDS011;18781;51.550;5.418;2022-12-18T03:26:06;71.38;;;29.05;;
32295;SDS011;18781;51.550;5.418;2022-12-18T03:28:43;73.60;;;29.85;;
32295;SDS011;18781;51.550;5.418;2022-12-18T03:31:24;68.68;;;27.63;;
32295;SDS011;18781;51.550;5.418;2022-12-18T03:36:22;63.72;;;27.23;;
32295;SDS011;18781;51.550;5.418;2022-12-18T03:38:48;69.28;;;27.60;;
32295;SDS011;18781;51.550;5.418;2022-12-18T03:44:35;62.38;;;26.83;;
32295;SDS011;18781;51.550;5.418;2022-12-18T03:54:45;62.20;;;27.10;;
32295;SDS011;18781;51.550;5.418;2022-12-18T03:57:14;61.35;;;26.08;;
32295;SDS011;18781;51.550;5.418;2022-12-18T03:59:44;63.88;;;25.98;;
32295;SDS011;18781;51.550;5.418;2022-12-18T04:02:13;62.00;;;26.15;;
32295;SDS011;18781;51.550;5.418;2022-12-18T04:04:41;66.25;;;26.23;;
32295;SDS011;18781;51.550;5.418;2022-12-18T04:07:09;61.83;;;25.33;;
32295;SDS011;18781;51.550;5.418;2022-12-18T04:09:36;51.53;;;23.38;;
32295;SDS011;18781;51.550;5.418;2022-12-18T04:12:06;57.50;;;23.65;;
32295;SDS011;18781;51.550;5.418;2022-12-18T04:14:31;57.88;;;24.65;;
32295;SDS011;18781;51.550;5.418;2022-12-18T04:17:00;51.72;;;24.90;;
32295;SDS011;18781;51.550;5.418;2022-12-18T04:19:26;50.30;;;24.02;;
32295;SDS011;18781;51.550;5.418;2022-12-18T04:21:52;56.88;;;23.83;;
32295;SDS011;18781;51.550;5.418;2022-12-18T04:24:17;57.78;;;23.17;;
32295;SDS011;18781;51.550;5.418;2022-12-18T04:26:43;55.90;;;23.05;;
32295;SDS011;18781;51.550;5.418;2022-12-18T04:29:08;56.35;;;23.63;;
32295;SDS011;18781;51.550;5.418;2022-12-18T04:31:34;59.55;;;23.65;;
32295;SDS011;18781;51.550;5.418;2022-12-18T04:34:00;57.63;;;23.98;;
32295;SDS011;18781;51.550;5.418;2022-12-18T04:36:25;55.03;;;22.48;;
32295;SDS011;18781;51.550;5.418;2022-12-18T04:38:51;55.33;;;23.15;;
32295;SDS011;18781;51.550;5.418;2022-12-18T04:41:16;48.08;;;21.63;;
32295;SDS011;18781;51.550;5.418;2022-12-18T04:43:42;49.75;;;21.88;;
32295;SDS011;18781;51.550;5.418;2022-12-18T04:46:08;48.50;;;21.60;;
32295;SDS011;18781;51.550;5.418;2022-12-18T04:48:34;51.22;;;21.40;;
32295;SDS011;18781;51.550;5.418;2022-12-18T04:51:00;59.95;;;22.83;;
32295;SDS011;18781;51.550;5.418;2022-12-18T04:53:25;52.90;;;22.55;;
32295;SDS011;18781;51.550;5.418;2022-12-18T04:56:01;51.65;;;21.92;;
32295;SDS011;18781;51.550;5.418;2022-12-18T04:58:31;54.80;;;22.25;;
32295;SDS011;18781;51.550;5.418;2022-12-18T05:00:57;47.67;;;21.50;;
32295;SDS011;18781;51.550;5.418;2022-12-18T05:03:22;47.50;;;21.35;;
32295;SDS011;18781;51.550;5.418;2022-12-18T05:05:51;48.17;;;20.83;;
32295;SDS011;18781;51.550;5.418;2022-12-18T05:08:17;52.20;;;21.38;;
32295;SDS011;18781;51.550;5.418;2022-12-18T05:10:43;47.47;;;21.25;;
32295;SDS011;18781;51.550;5.418;2022-12-18T05:13:09;51.42;;;20.90;;
32295;SDS011;18781;51.550;5.418;2022-12-18T05:15:35;50.70;;;21.75;;
32295;SDS011;18781;51.550;5.418;2022-12-18T05:18:01;43.13;;;20.45;;
32295;SDS011;18781;51.550;5.418;2022-12-18T05:20:27;48.33;;;20.13;;
32295;SDS011;18781;51.550;5.418;2022-12-18T05:22:53;46.42;;;20.58;;
32295;SDS011;18781;51.550;5.418;2022-12-18T05:25:19;51.00;;;21.38;;
32295;SDS011;18781;51.550;5.418;2022-12-18T05:27:45;45.42;;;19.98;;
32295;SDS011;18781;51.550;5.418;2022-12-18T05:30:11;47.22;;;20.95;;
32295;SDS011;18781;51.550;5.418;2022-12-18T05:32:37;42.22;;;19.48;;
32295;SDS011;18781;51.550;5.418;2022-12-18T05:35:04;50.45;;;20.00;;
32295;SDS011;18781;51.550;5.418;2022-12-18T05:37:31;41.92;;;19.80;;
32295;SDS011;18781;51.550;5.418;2022-12-18T05:39:56;51.10;;;20.95;;
32295;SDS011;18781;51.550;5.418;2022-12-18T05:42:22;48.15;;;20.23;;
32295;SDS011;18781;51.550;5.418;2022-12-18T05:44:47;47.40;;;20.75;;
32295;SDS011;18781;51.550;5.418;2022-12-18T05:47:13;43.65;;;19.35;;
32295;SDS011;18781;51.550;5.418;2022-12-18T05:49:39;46.50;;;20.30;;
32295;SDS011;18781;51.550;5.418;2022-12-18T05:52:04;46.58;;;19.58;;
32295;SDS011;18781;51.550;5.418;2022-12-18T05:54:30;45.83;;;20.77;;
32295;SDS011;18781;51.550;5.418;2022-12-18T05:56:56;43.13;;;19.50;;
32295;SDS011;18781;51.550;5.418;2022-12-18T05:59:22;46.95;;;20.23;;
32295;SDS011;18781;51.550;5.418;2022-12-18T06:01:47;45.00;;;19.17;;
32295;SDS011;18781;51.550;5.418;2022-12-18T06:04:13;39.75;;;18.75;;
32295;SDS011;18781;51.550;5.418;2022-12-18T06:06:39;40.17;;;18.27;;
32295;SDS011;18781;51.550;5.418;2022-12-18T06:09:05;47.63;;;19.73;;
32295;SDS011;18781;51.550;5.418;2022-12-18T06:11:33;46.00;;;20.63;;
32295;SDS011;18781;51.550;5.418;2022-12-18T06:14:01;41.92;;;18.17;;
32295;SDS011;18781;51.550;5.418;2022-12-18T06:16:27;48.08;;;19.40;;
32295;SDS011;18781;51.550;5.418;2022-12-18T06:18:57;40.10;;;19.65;;
32295;SDS011;18781;51.550;5.418;2022-12-18T06:21:27;43.08;;;18.38;;
32295;SDS011;18781;51.550;5.418;2022-12-18T06:23:54;47.35;;;19.33;;
32295;SDS011;18781;51.550;5.418;2022-12-18T06:26:20;47.58;;;19.08;;
32295;SDS011;18781;51.550;5.418;2022-12-18T06:28:45;45.47;;;18.17;;
32295;SDS011;18781;51.550;5.418;2022-12-18T06:31:11;43.45;;;18.77;;
32295;SDS011;18781;51.550;5.418;2022-12-18T06:33:37;38.95;;;17.38;;
32295;SDS011;18781;51.550;5.418;2022-12-18T06:36:07;42.47;;;18.63;;
32295;SDS011;18781;51.550;5.418;2022-12-18T06:38:37;39.72;;;17.15;;
32295;SDS011;18781;51.550;5.418;2022-12-18T06:46:01;49.33;;;19.15;;
32295;SDS011;18781;51.550;5.418;2022-12-18T06:48:27;40.20;;;18.83;;
32295;SDS011;18781;51.550;5.418;2022-12-18T06:50:52;43.47;;;18.98;;
32295;SDS011;18781;51.550;5.418;2022-12-18T06:53:18;41.63;;;18.63;;
32295;SDS011;18781;51.550;5.418;2022-12-18T06:55:43;41.42;;;18.77;;
32295;SDS011;18781;51.550;5.418;2022-12-18T06:58:09;46.88;;;18.38;;
32295;SDS011;18781;51.550;5.418;2022-12-18T07:00:34;38.92;;;17.75;;
32295;SDS011;18781;51.550;5.418;2022-12-18T07:03:00;39.72;;;18.02;;
32295;SDS011;18781;51.550;5.418;2022-12-18T07:05:26;42.53;;;17.65;;
32295;SDS011;18781;51.550;5.418;2022-12-18T07:07:51;37.72;;;17.95;;
32295;SDS011;18781;51.550;5.418;2022-12-18T07:10:17;41.85;;;18.85;;
32295;SDS011;18781;51.550;5.418;2022-12-18T07:12:43;39.33;;;18.20;;
32295;SDS011;18781;51.550;5.418;2022-12-18T07:15:08;41.55;;;18.90;;
32295;SDS011;18781;51.550;5.418;2022-12-18T07:17:34;44.90;;;19.10;;
32295;SDS011;18781;51.550;5.418;2022-12-18T07:20:00;43.42;;;19.02;;
32295;SDS011;18781;51.550;5.418;2022-12-18T07:22:26;46.40;;;19.67;;
32295;SDS011;18781;51.550;5.418;2022-12-18T07:24:51;37.10;;;19.67;;
32295;SDS011;18781;51.550;5.418;2022-12-18T07:27:17;46.30;;;19.45;;
32295;SDS011;18781;51.550;5.418;2022-12-18T07:29:43;41.47;;;17.98;;
32295;SDS011;18781;51.550;5.418;2022-12-18T07:32:09;43.15;;;19.95;;
32295;SDS011;18781;51.550;5.418;2022-12-18T07:34:34;45.88;;;20.17;;
32295;SDS011;18781;51.550;5.418;2022-12-18T07:37:00;46.65;;;20.42;;
32295;SDS011;18781;51.550;5.418;2022-12-18T07:39:25;43.45;;;19.10;;
32295;SDS011;18781;51.550;5.418;2022-12-18T07:41:51;46.88;;;20.45;;
32295;SDS011;18781;51.550;5.418;2022-12-18T07:44:35;48.03;;;18.67;;
32295;SDS011;18781;51.550;5.418;2022-12-18T07:47:01;44.45;;;19.73;;
32295;SDS011;18781;51.550;5.418;2022-12-18T07:49:27;48.55;;;20.60;;
32295;SDS011;18781;51.550;5.418;2022-12-18T07:51:54;45.13;;;20.08;;
32295;SDS011;18781;51.550;5.418;2022-12-18T07:54:21;52.38;;;21.73;;
32295;SDS011;18781;51.550;5.418;2022-12-18T07:56:47;41.75;;;19.67;;
32295;SDS011;18781;51.550;5.418;2022-12-18T07:59:12;50.35;;;20.77;;
32295;SDS011;18781;51.550;5.418;2022-12-18T08:01:38;43.83;;;20.27;;
32295;SDS011;18781;51.550;5.418;2022-12-18T08:04:03;50.17;;;19.67;;
32295;SDS011;18781;51.550;5.418;2022-12-18T08:06:29;44.40;;;19.08;;
32295;SDS011;18781;51.550;5.418;2022-12-18T08:08:55;44.95;;;20.20;;
32295;SDS011;18781;51.550;5.418;2022-12-18T08:11:22;49.65;;;20.30;;
32295;SDS011;18781;51.550;5.418;2022-12-18T08:13:49;53.08;;;22.38;;
32295;SDS011;18781;51.550;5.418;2022-12-18T08:16:15;50.13;;;20.73;;
32295;SDS011;18781;51.550;5.418;2022-12-18T08:18:41;48.78;;;21.08;;
32295;SDS011;18781;51.550;5.418;2022-12-18T08:21:13;48.10;;;21.17;;
32295;SDS011;18781;51.550;5.418;2022-12-18T08:23:40;45.88;;;19.77;;
32295;SDS011;18781;51.550;5.418;2022-12-18T08:26:06;48.45;;;21.35;;
32295;SDS011;18781;51.550;5.418;2022-12-18T08:28:32;47.17;;;20.98;;
32295;SDS011;18781;51.550;5.418;2022-12-18T08:30:58;45.92;;;21.00;;
32295;SDS011;18781;51.550;5.418;2022-12-18T08:33:23;47.28;;;21.67;;
32295;SDS011;18781;51.550;5.418;2022-12-18T08:35:49;49.38;;;21.38;;
32295;SDS011;18781;51.550;5.418;2022-12-18T08:38:15;49.25;;;21.08;;
32295;SDS011;18781;51.550;5.418;2022-12-18T08:40:40;52.60;;;22.95;;
32295;SDS011;18781;51.550;5.418;2022-12-18T08:43:07;44.03;;;21.20;;
32295;SDS011;18781;51.550;5.418;2022-12-18T08:46:01;49.75;;;21.52;;
32295;SDS011;18781;51.550;5.418;2022-12-18T08:48:26;45.20;;;21.25;;
32295;SDS011;18781;51.550;5.418;2022-12-18T08:50:55;49.17;;;23.30;;
32295;SDS011;18781;51.550;5.418;2022-12-18T08:53:22;51.38;;;22.13;;
32295;SDS011;18781;51.550;5.418;2022-12-18T08:55:47;55.85;;;24.20;;
32295;SDS011;18781;51.550;5.418;2022-12-18T08:58:13;51.85;;;23.55;;
32295;SDS011;18781;51.550;5.418;2022-12-18T09:00:38;50.38;;;22.38;;
32295;SDS011;18781;51.550;5.418;2022-12-18T09:03:04;49.75;;;22.90;;
32295;SDS011;18781;51.550;5.418;2022-12-18T09:05:29;49.30;;;21.60;;
32295;SDS011;18781;51.550;5.418;2022-12-18T09:07:55;44.00;;;21.17;;
32295;SDS011;18781;51.550;5.418;2022-12-18T09:10:21;49.83;;;23.02;;
32295;SDS011;18781;51.550;5.418;2022-12-18T09:12:47;53.50;;;24.52;;
32295;SDS011;18781;51.550;5.418;2022-12-18T09:15:12;49.03;;;22.10;;
32295;SDS011;18781;51.550;5.418;2022-12-18T09:17:38;47.42;;;22.25;;
32295;SDS011;18781;51.550;5.418;2022-12-18T09:20:03;47.35;;;21.55;;
32295;SDS011;18781;51.550;5.418;2022-12-18T09:22:30;45.42;;;21.50;;
32295;SDS011;18781;51.550;5.418;2022-12-18T09:24:55;48.88;;;22.92;;
32295;SDS011;18781;51.550;5.418;2022-12-18T09:27:21;46.63;;;21.55;;
32295;SDS011;18781;51.550;5.418;2022-12-18T09:29:46;47.30;;;21.83;;
32295;SDS011;18781;51.550;5.418;2022-12-18T09:32:12;48.30;;;21.67;;
32295;SDS011;18781;51.550;5.418;2022-12-18T09:34:38;47.15;;;22.25;;
32295;SDS011;18781;51.550;5.418;2022-12-18T09:37:03;47.53;;;21.42;;
32295;SDS011;18781;51.550;5.418;2022-12-18T09:39:29;51.08;;;22.60;;
32295;SDS011;18781;51.550;5.418;2022-12-18T09:41:55;46.80;;;22.85;;
32295;SDS011;18781;51.550;5.418;2022-12-18T09:44:39;48.47;;;22.08;;
32295;SDS011;18781;51.550;5.418;2022-12-18T09:47:15;42.90;;;21.92;;
32295;SDS011;18781;51.550;5.418;2022-12-18T09:49:58;41.70;;;20.40;;
32295;SDS011;18781;51.550;5.418;2022-12-18T09:55:00;32.50;;;15.80;;
32295;SDS011;18781;51.550;5.418;2022-12-18T09:57:31;51.15;;;22.50;;
32295;SDS011;18781;51.550;5.418;2022-12-18T10:00:04;48.25;;;22.30;;
32295;SDS011;18781;51.550;5.418;2022-12-18T10:02:39;46.75;;;22.63;;
32295;SDS011;18781;51.550;5.418;2022-12-18T10:05:06;48.55;;;22.05;;
32295;SDS011;18781;51.550;5.418;2022-12-18T10:10:23;48.25;;;22.52;;
32295;SDS011;18781;51.550;5.418;2022-12-18T10:18:30;46.60;;;23.23;;
32295;SDS011;18781;51.550;5.418;2022-12-18T10:21:18;46.88;;;21.65;;
32295;SDS011;18781;51.550;5.418;2022-12-18T10:23:55;53.13;;;23.27;;
32295;SDS011;18781;51.550;5.418;2022-12-18T10:26:47;48.80;;;22.60;;
32295;SDS011;18781;51.550;5.418;2022-12-18T10:29:14;52.78;;;23.73;;
32295;SDS011;18781;51.550;5.418;2022-12-18T10:31:40;45.42;;;22.77;;
32295;SDS011;18781;51.550;5.418;2022-12-18T10:34:10;54.45;;;23.45;;
32295;SDS011;18781;51.550;5.418;2022-12-18T10:36:36;52.95;;;22.92;;
32295;SDS011;18781;51.550;5.418;2022-12-18T10:39:16;47.63;;;23.08;;
32295;SDS011;18781;51.550;5.418;2022-12-18T10:41:49;46.10;;;22.63;;
32295;SDS011;18781;51.550;5.418;2022-12-18T10:44:16;48.20;;;24.17;;
32295;SDS011;18781;51.550;5.418;2022-12-18T10:46:42;49.22;;;23.48;;
32295;SDS011;18781;51.550;5.418;2022-12-18T10:49:26;48.08;;;23.52;;
32295;SDS011;18781;51.550;5.418;2022-12-18T10:57:27;47.08;;;23.33;;
32295;SDS011;18781;51.550;5.418;2022-12-18T10:59:58;48.38;;;23.42;;
32295;SDS011;18781;51.550;5.418;2022-12-18T11:02:36;46.97;;;23.67;;
32295;SDS011;18781;51.550;5.418;2022-12-18T11:05:03;48.67;;;24.00;;
32295;SDS011;18781;51.550;5.418;2022-12-18T11:07:52;45.67;;;22.25;;
32295;SDS011;18781;51.550;5.418;2022-12-18T11:10:22;46.83;;;22.77;;
32295;SDS011;18781;51.550;5.418;2022-12-18T11:13:08;43.65;;;22.15;;
32295;SDS011;18781;51.550;5.418;2022-12-18T11:15:45;48.70;;;22.65;;
32295;SDS011;18781;51.550;5.418;2022-12-18T11:18:19;41.00;;;21.45;;
32295;SDS011;18781;51.550;5.418;2022-12-18T11:21:00;50.88;;;23.02;;
32295;SDS011;18781;51.550;5.418;2022-12-18T11:23:32;50.85;;;22.55;;
32295;SDS011;18781;51.550;5.418;2022-12-18T11:25:59;46.45;;;22.58;;
32295;SDS011;18781;51.550;5.418;2022-12-18T11:28:29;32.33;;;16.15;;
32295;SDS011;18781;51.550;5.418;2022-12-18T11:31:28;44.50;;;21.88;;
32295;SDS011;18781;51.550;5.418;2022-12-18T11:36:32;42.92;;;22.02;;
32295;SDS011;18781;51.550;5.418;2022-12-18T11:39:05;47.65;;;22.33;;
32295;SDS011;18781;51.550;5.418;2022-12-18T11:41:41;44.17;;;21.85;;
32295;SDS011;18781;51.550;5.418;2022-12-18T11:47:05;53.67;;;25.42;;
32295;SDS011;18781;51.550;5.418;2022-12-18T11:49:40;45.00;;;22.58;;
32295;SDS011;18781;51.550;5.418;2022-12-18T11:52:16;46.55;;;21.80;;
32295;SDS011;18781;51.550;5.418;2022-12-18T11:55:04;44.58;;;21.85;;
32295;SDS011;18781;51.550;5.418;2022-12-18T12:06:15;44.70;;;22.33;;
32295;SDS011;18781;51.550;5.418;2022-12-18T12:21:54;45.80;;;22.38;;
32295;SDS011;18781;51.550;5.418;2022-12-18T12:27:05;45.08;;;21.90;;
32295;SDS011;18781;51.550;5.418;2022-12-18T12:35:29;47.05;;;22.63;;
32295;SDS011;18781;51.550;5.418;2022-12-18T12:38:09;47.17;;;22.27;;
32295;SDS011;18781;51.550;5.418;2022-12-18T12:40:51;31.67;;;16.27;;
32295;SDS011;18781;51.550;5.418;2022-12-18T12:43:39;44.28;;;23.30;;
32295;SDS011;18781;51.550;5.418;2022-12-18T12:46:10;46.67;;;22.75;;
32295;SDS011;18781;51.550;5.418;2022-12-18T12:48:56;50.20;;;23.63;;
32295;SDS011;18781;51.550;5.418;2022-12-18T12:51:32;44.40;;;22.90;;
32295;SDS011;18781;51.550;5.418;2022-12-18T12:54:02;44.70;;;22.38;;
32295;SDS011;18781;51.550;5.418;2022-12-18T12:59:22;50.00;;;23.92;;
32295;SDS011;18781;51.550;5.418;2022-12-18T13:07:04;46.70;;;23.25;;
32295;SDS011;18781;51.550;5.418;2022-12-18T13:18:18;40.83;;;22.15;;
32295;SDS011;18781;51.550;5.418;2022-12-18T13:23:19;41.55;;;20.70;;
32295;SDS011;18781;51.550;5.418;2022-12-18T13:25:51;44.95;;;22.90;;
32295;SDS011;18781;51.550;5.418;2022-12-18T13:28:22;49.90;;;22.88;;
32295;SDS011;18781;51.550;5.418;2022-12-18T13:30:57;43.83;;;21.65;;
32295;SDS011;18781;51.550;5.418;2022-12-18T13:36:17;45.22;;;21.77;;
32295;SDS011;18781;51.550;5.418;2022-12-18T13:41:39;44.70;;;21.83;;
32295;SDS011;18781;51.550;5.418;2022-12-18T13:46:58;41.03;;;21.42;;
32295;SDS011;18781;51.550;5.418;2022-12-18T13:51:56;47.22;;;22.00;;
32295;SDS011;18781;51.550;5.418;2022-12-18T13:57:00;41.17;;;21.52;;
32295;SDS011;18781;51.550;5.418;2022-12-18T13:59:38;47.65;;;22.92;;
32295;SDS011;18781;51.550;5.418;2022-12-18T14:02:15;46.20;;;22.98;;
32295;SDS011;18781;51.550;5.418;2022-12-18T14:04:44;44.33;;;22.45;;
32295;SDS011;18781;51.550;5.418;2022-12-18T14:07:15;43.35;;;21.73;;
32295;SDS011;18781;51.550;5.418;2022-12-18T14:09:44;44.78;;;22.63;;
32295;SDS011;18781;51.550;5.418;2022-12-18T14:12:18;48.25;;;22.50;;
32295;SDS011;18781;51.550;5.418;2022-12-18T14:20:26;50.65;;;22.33;;
32295;SDS011;18781;51.550;5.418;2022-12-18T14:22:54;52.08;;;22.38;;
32295;SDS011;18781;51.550;5.418;2022-12-18T14:25:22;45.83;;;22.52;;
32295;SDS011;18781;51.550;5.418;2022-12-18T14:27:50;47.33;;;22.45;;
32295;SDS011;18781;51.550;5.418;2022-12-18T14:30:32;46.58;;;22.02;;
32295;SDS011;18781;51.550;5.418;2022-12-18T14:33:13;47.22;;;22.33;;
32295;SDS011;18781;51.550;5.418;2022-12-18T14:35:43;48.47;;;22.42;;
32295;SDS011;18781;51.550;5.418;2022-12-18T14:40:56;42.45;;;21.52;;
32295;SDS011;18781;51.550;5.418;2022-12-18T14:43:33;49.90;;;22.77;;
32295;SDS011;18781;51.550;5.418;2022-12-18T14:46:03;45.25;;;21.90;;
32295;SDS011;18781;51.550;5.418;2022-12-18T14:48:40;45.47;;;22.95;;
32295;SDS011;18781;51.550;5.418;2022-12-18T14:53:56;51.70;;;23.98;;
32295;SDS011;18781;51.550;5.418;2022-12-18T14:56:32;57.15;;;26.92;;
32295;SDS011;18781;51.550;5.418;2022-12-18T14:59:12;79.38;;;35.45;;
32295;SDS011;18781;51.550;5.418;2022-12-18T15:01:56;59.95;;;28.17;;
32295;SDS011;18781;51.550;5.418;2022-12-18T15:04:37;51.70;;;24.63;;
32295;SDS011;18781;51.550;5.418;2022-12-18T15:10:00;60.30;;;27.02;;
32295;SDS011;18781;51.550;5.418;2022-12-18T15:12:41;52.10;;;25.75;;
32295;SDS011;18781;51.550;5.418;2022-12-18T15:18:01;46.20;;;23.50;;
32295;SDS011;18781;51.550;5.418;2022-12-18T15:20:55;46.97;;;21.63;;
32295;SDS011;18781;51.550;5.418;2022-12-18T15:25:58;43.13;;;21.65;;
32295;SDS011;18781;51.550;5.418;2022-12-18T15:28:32;50.80;;;21.85;;
32295;SDS011;18781;51.550;5.418;2022-12-18T15:33:42;45.95;;;21.77;;
32295;SDS011;18781;51.550;5.418;2022-12-18T15:36:15;50.10;;;23.13;;
32295;SDS011;18781;51.550;5.418;2022-12-18T15:38:45;45.58;;;23.02;;
32295;SDS011;18781;51.550;5.418;2022-12-18T15:41:13;49.85;;;21.95;;
32295;SDS011;18781;51.550;5.418;2022-12-18T15:43:39;47.33;;;22.40;;
32295;SDS011;18781;51.550;5.418;2022-12-18T15:46:08;46.00;;;22.45;;
32295;SDS011;18781;51.550;5.418;2022-12-18T15:49:10;44.50;;;22.30;;
32295;SDS011;18781;51.550;5.418;2022-12-18T15:54:01;42.88;;;21.30;;
32295;SDS011;18781;51.550;5.418;2022-12-18T15:56:29;44.35;;;21.73;;
32295;SDS011;18781;51.550;5.418;2022-12-18T15:59:14;44.55;;;21.67;;
32295;SDS011;18781;51.550;5.418;2022-12-18T16:01:42;44.78;;;21.98;;
32295;SDS011;18781;51.550;5.418;2022-12-18T16:04:13;44.92;;;22.85;;
32295;SDS011;18781;51.550;5.418;2022-12-18T16:06:40;43.47;;;22.40;;
32295;SDS011;18781;51.550;5.418;2022-12-18T16:09:06;44.10;;;22.77;;
32295;SDS011;18781;51.550;5.418;2022-12-18T16:11:33;48.92;;;21.90;;
32295;SDS011;18781;51.550;5.418;2022-12-18T16:14:24;48.08;;;22.92;;
32295;SDS011;18781;51.550;5.418;2022-12-18T16:16:55;45.20;;;22.48;;
32295;SDS011;18781;51.550;5.418;2022-12-18T16:19:23;52.58;;;23.40;;
32295;SDS011;18781;51.550;5.418;2022-12-18T16:21:50;43.60;;;22.52;;
32295;SDS011;18781;51.550;5.418;2022-12-18T16:24:27;45.58;;;21.63;;
32295;SDS011;18781;51.550;5.418;2022-12-18T16:26:55;43.72;;;22.70;;
32295;SDS011;18781;51.550;5.418;2022-12-18T16:31:52;50.97;;;23.00;;
32295;SDS011;18781;51.550;5.418;2022-12-18T16:34:25;50.60;;;22.77;;
32295;SDS011;18781;51.550;5.418;2022-12-18T16:37:11;47.42;;;22.75;;
32295;SDS011;18781;51.550;5.418;2022-12-18T16:39:38;47.03;;;22.50;;
32295;SDS011;18781;51.550;5.418;2022-12-18T16:42:06;43.20;;;22.48;;
32295;SDS011;18781;51.550;5.418;2022-12-18T16:44:37;49.85;;;23.05;;
32295;SDS011;18781;51.550;5.418;2022-12-18T16:47:03;41.47;;;21.80;;
32295;SDS011;18781;51.550;5.418;2022-12-18T16:49:29;54.67;;;23.13;;
32295;SDS011;18781;51.550;5.418;2022-12-18T16:51:54;45.95;;;23.50;;
32295;SDS011;18781;51.550;5.418;2022-12-18T16:54:20;49.60;;;24.08;;
32295;SDS011;18781;51.550;5.418;2022-12-18T16:56:46;44.83;;;22.02;;
32295;SDS011;18781;51.550;5.418;2022-12-18T16:59:14;42.47;;;22.23;;
32295;SDS011;18781;51.550;5.418;2022-12-18T17:01:40;46.85;;;24.33;;